sensor_id;sensor_type;location;lat;lon;timestamp;P1;durP1;ratioP1;P2;durP2;ratioP2
79631;SDS011;69108;41.120;16.874;2023-07-16T00:02:20;12.15;;;4.70;;
79631;SDS011;69108;41.120;16.874;2023-07-16T00:04:46;10.32;;;4.40;;
79631;SDS011;69108;41.120;16.874;2023-07-16T00:07:13;8.95;;;4.38;;
79631;SDS011;69108;41.120;16.874;2023-07-16T00:09:43;11.60;;;4.88;;
79631;SDS011;69108;41.120;16.874;2023-07-16T00:12:15;8.57;;;4.38;;
79631;SDS011;69108;41.120;16.874;2023-07-16T00:14:42;11.73;;;5.00;;
79631;SDS011;69108;41.120;16.874;2023-07-16T00:17:08;9.13;;;4.55;;
79631;SDS011;69108;41.120;16.874;2023-07-16T00:19:36;10.00;;;4.30;;
79631;SDS011;69108;41.120;16.874;2023-07-16T00:24:33;12.00;;;4.95;;
79631;SDS011;69108;41.120;16.874;2023-07-16T00:26:59;7.97;;;4.20;;
79631;SDS011;69108;41.120;16.874;2023-07-16T00:29:28;12.82;;;4.78;;
79631;SDS011;69108;41.120;16.874;2023-07-16T00:31:55;10.52;;;4.28;;
79631;SDS011;69108;41.120;16.874;2023-07-16T00:34:24;10.25;;;5.00;;
79631;SDS011;69108;41.120;16.874;2023-07-16T00:36:50;10.10;;;4.32;;
79631;SDS011;69108;41.120;16.874;2023-07-16T00:39:17;11.38;;;4.38;;
79631;SDS011;69108;41.120;16.874;2023-07-16T00:41:44;11.18;;;4.22;;
79631;SDS011;69108;41.120;16.874;2023-07-16T00:44:14;8.10;;;4.18;;
79631;SDS011;69108;41.120;16.874;2023-07-16T00:46:42;8.10;;;4.00;;
79631;SDS011;69108;41.120;16.874;2023-07-16T00:49:27;10.48;;;4.10;;
79631;SDS011;69108;41.120;16.874;2023-07-16T00:51:54;8.82;;;4.13;;
79631;SDS011;69108;41.120;16.874;2023-07-16T00:56:48;11.70;;;4.28;;
79631;SDS011;69108;41.120;16.874;2023-07-16T00:59:15;12.02;;;4.20;;
79631;SDS011;69108;41.120;16.874;2023-07-16T01:01:45;10.65;;;4.35;;
79631;SDS011;69108;41.120;16.874;2023-07-16T01:04:11;11.68;;;4.30;;
79631;SDS011;69108;41.120;16.874;2023-07-16T01:06:39;10.48;;;4.60;;
79631;SDS011;69108;41.120;16.874;2023-07-16T01:09:08;10.05;;;4.60;;
79631;SDS011;69108;41.120;16.874;2023-07-16T01:11:39;9.20;;;4.30;;
79631;SDS011;69108;41.120;16.874;2023-07-16T01:14:07;10.95;;;4.25;;
79631;SDS011;69108;41.120;16.874;2023-07-16T01:16:34;8.93;;;4.45;;
79631;SDS011;69108;41.120;16.874;2023-07-16T01:19:03;12.55;;;4.35;;
79631;SDS011;69108;41.120;16.874;2023-07-16T01:21:31;10.40;;;4.55;;
79631;SDS011;69108;41.120;16.874;2023-07-16T01:24:09;9.32;;;3.75;;
79631;SDS011;69108;41.120;16.874;2023-07-16T01:29:35;8.45;;;4.13;;
79631;SDS011;69108;41.120;16.874;2023-07-16T01:32:03;8.70;;;3.90;;
79631;SDS011;69108;41.120;16.874;2023-07-16T01:34:32;10.57;;;4.13;;
79631;SDS011;69108;41.120;16.874;2023-07-16T01:37:01;8.25;;;3.80;;
79631;SDS011;69108;41.120;16.874;2023-07-16T01:39:29;8.68;;;4.35;;
79631;SDS011;69108;41.120;16.874;2023-07-16T01:41:57;9.00;;;4.00;;
79631;SDS011;69108;41.120;16.874;2023-07-16T01:44:24;10.93;;;3.90;;
79631;SDS011;69108;41.120;16.874;2023-07-16T01:46:59;7.20;;;3.95;;
79631;SDS011;69108;41.120;16.874;2023-07-16T01:49:31;11.73;;;4.20;;
79631;SDS011;69108;41.120;16.874;2023-07-16T01:51:57;11.25;;;4.72;;
79631;SDS011;69108;41.120;16.874;2023-07-16T01:54:28;9.90;;;4.40;;
79631;SDS011;69108;41.120;16.874;2023-07-16T01:56:54;9.25;;;4.80;;
79631;SDS011;69108;41.120;16.874;2023-07-16T01:59:21;8.95;;;4.30;;
79631;SDS011;69108;41.120;16.874;2023-07-16T02:01:48;12.95;;;4.45;;
79631;SDS011;69108;41.120;16.874;2023-07-16T02:04:17;10.98;;;5.28;;
79631;SDS011;69108;41.120;16.874;2023-07-16T02:06:43;14.13;;;6.20;;
79631;SDS011;69108;41.120;16.874;2023-07-16T02:09:10;15.88;;;6.70;;
79631;SDS011;69108;41.120;16.874;2023-07-16T02:11:37;13.52;;;5.45;;
79631;SDS011;69108;41.120;16.874;2023-07-16T02:14:04;13.20;;;5.80;;
79631;SDS011;69108;41.120;16.874;2023-07-16T02:16:31;13.73;;;6.32;;
79631;SDS011;69108;41.120;16.874;2023-07-16T02:19:00;13.85;;;6.00;;
79631;SDS011;69108;41.120;16.874;2023-07-16T02:21:30;13.85;;;5.85;;
79631;SDS011;69108;41.120;16.874;2023-07-16T02:23:57;11.68;;;5.10;;
79631;SDS011;69108;41.120;16.874;2023-07-16T02:26:24;12.90;;;5.47;;
79631;SDS011;69108;41.120;16.874;2023-07-16T02:28:52;16.42;;;6.07;;
79631;SDS011;69108;41.120;16.874;2023-07-16T02:31:19;15.55;;;5.93;;
79631;SDS011;69108;41.120;16.874;2023-07-16T02:33:45;11.13;;;5.38;;
79631;SDS011;69108;41.120;16.874;2023-07-16T02:36:15;15.45;;;6.53;;
79631;SDS011;69108;41.120;16.874;2023-07-16T02:38:44;14.18;;;6.35;;
79631;SDS011;69108;41.120;16.874;2023-07-16T02:41:11;13.10;;;6.05;;
79631;SDS011;69108;41.120;16.874;2023-07-16T02:43:39;13.27;;;6.47;;
79631;SDS011;69108;41.120;16.874;2023-07-16T02:46:06;13.50;;;5.85;;
79631;SDS011;69108;41.120;16.874;2023-07-16T02:48:33;10.38;;;5.68;;
79631;SDS011;69108;41.120;16.874;2023-07-16T02:51:00;11.10;;;5.30;;
79631;SDS011;69108;41.120;16.874;2023-07-16T02:53:27;10.68;;;5.40;;
79631;SDS011;69108;41.120;16.874;2023-07-16T02:55:55;12.25;;;4.82;;
79631;SDS011;69108;41.120;16.874;2023-07-16T02:58:22;17.52;;;4.60;;
79631;SDS011;69108;41.120;16.874;2023-07-16T03:00:49;10.45;;;4.40;;
79631;SDS011;69108;41.120;16.874;2023-07-16T03:03:16;12.55;;;4.50;;
79631;SDS011;69108;41.120;16.874;2023-07-16T03:05:43;8.23;;;4.45;;
79631;SDS011;69108;41.120;16.874;2023-07-16T03:08:09;9.52;;;4.50;;
79631;SDS011;69108;41.120;16.874;2023-07-16T03:10:37;8.75;;;4.35;;
79631;SDS011;69108;41.120;16.874;2023-07-16T03:13:06;9.05;;;4.70;;
79631;SDS011;69108;41.120;16.874;2023-07-16T03:15:33;11.20;;;4.95;;
79631;SDS011;69108;41.120;16.874;2023-07-16T03:18:00;12.20;;;5.15;;
79631;SDS011;69108;41.120;16.874;2023-07-16T03:20:28;11.48;;;4.57;;
79631;SDS011;69108;41.120;16.874;2023-07-16T03:22:56;10.07;;;5.00;;
79631;SDS011;69108;41.120;16.874;2023-07-16T03:25:27;11.80;;;5.10;;
79631;SDS011;69108;41.120;16.874;2023-07-16T03:27:54;11.52;;;5.32;;
79631;SDS011;69108;41.120;16.874;2023-07-16T03:30:23;9.50;;;4.88;;
79631;SDS011;69108;41.120;16.874;2023-07-16T03:32:50;12.48;;;5.00;;
79631;SDS011;69108;41.120;16.874;2023-07-16T03:35:16;11.25;;;5.57;;
79631;SDS011;69108;41.120;16.874;2023-07-16T03:37:45;12.85;;;5.00;;
79631;SDS011;69108;41.120;16.874;2023-07-16T03:40:12;11.38;;;4.93;;
79631;SDS011;69108;41.120;16.874;2023-07-16T03:42:40;10.52;;;4.85;;
79631;SDS011;69108;41.120;16.874;2023-07-16T03:47:35;10.07;;;4.78;;
79631;SDS011;69108;41.120;16.874;2023-07-16T03:50:02;12.52;;;5.43;;
79631;SDS011;69108;41.120;16.874;2023-07-16T03:52:30;11.13;;;4.93;;
79631;SDS011;69108;41.120;16.874;2023-07-16T03:54:57;10.18;;;5.13;;
79631;SDS011;69108;41.120;16.874;2023-07-16T03:57:23;14.07;;;5.00;;
79631;SDS011;69108;41.120;16.874;2023-07-16T03:59:51;14.70;;;5.40;;
79631;SDS011;69108;41.120;16.874;2023-07-16T04:02:19;12.15;;;5.57;;
79631;SDS011;69108;41.120;16.874;2023-07-16T04:04:47;13.50;;;5.47;;
79631;SDS011;69108;41.120;16.874;2023-07-16T04:07:15;15.15;;;5.85;;
79631;SDS011;69108;41.120;16.874;2023-07-16T04:09:43;11.73;;;5.32;;
79631;SDS011;69108;41.120;16.874;2023-07-16T04:12:10;8.75;;;4.50;;
79631;SDS011;69108;41.120;16.874;2023-07-16T04:14:37;9.10;;;4.68;;
79631;SDS011;69108;41.120;16.874;2023-07-16T04:17:05;8.85;;;4.85;;
79631;SDS011;69108;41.120;16.874;2023-07-16T04:19:32;11.95;;;5.00;;
79631;SDS011;69108;41.120;16.874;2023-07-16T04:22:01;13.65;;;5.05;;
79631;SDS011;69108;41.120;16.874;2023-07-16T04:24:28;14.38;;;5.10;;
79631;SDS011;69108;41.120;16.874;2023-07-16T04:26:57;22.88;;;6.50;;
79631;SDS011;69108;41.120;16.874;2023-07-16T04:29:24;10.75;;;5.00;;
79631;SDS011;69108;41.120;16.874;2023-07-16T04:31:51;14.90;;;5.68;;
79631;SDS011;69108;41.120;16.874;2023-07-16T04:34:18;12.50;;;5.45;;
79631;SDS011;69108;41.120;16.874;2023-07-16T04:36:45;13.10;;;5.10;;
79631;SDS011;69108;41.120;16.874;2023-07-16T04:39:16;19.05;;;5.22;;
79631;SDS011;69108;41.120;16.874;2023-07-16T04:41:44;14.00;;;5.05;;
79631;SDS011;69108;41.120;16.874;2023-07-16T04:44:12;14.77;;;5.50;;
79631;SDS011;69108;41.120;16.874;2023-07-16T04:46:41;14.48;;;5.47;;
79631;SDS011;69108;41.120;16.874;2023-07-16T04:49:08;12.52;;;5.28;;
79631;SDS011;69108;41.120;16.874;2023-07-16T04:51:35;10.35;;;4.93;;
79631;SDS011;69108;41.120;16.874;2023-07-16T04:54:02;10.20;;;4.97;;
79631;SDS011;69108;41.120;16.874;2023-07-16T04:56:31;22.55;;;6.00;;
79631;SDS011;69108;41.120;16.874;2023-07-16T04:59:00;13.65;;;5.43;;
79631;SDS011;69108;41.120;16.874;2023-07-16T05:01:27;15.88;;;5.45;;
79631;SDS011;69108;41.120;16.874;2023-07-16T05:03:54;14.52;;;5.82;;
79631;SDS011;69108;41.120;16.874;2023-07-16T05:06:22;11.50;;;5.60;;
79631;SDS011;69108;41.120;16.874;2023-07-16T05:08:55;12.10;;;5.30;;
79631;SDS011;69108;41.120;16.874;2023-07-16T05:11:22;11.88;;;5.82;;
79631;SDS011;69108;41.120;16.874;2023-07-16T05:13:52;15.70;;;6.38;;
79631;SDS011;69108;41.120;16.874;2023-07-16T05:16:22;13.73;;;5.95;;
79631;SDS011;69108;41.120;16.874;2023-07-16T05:18:49;12.60;;;5.82;;
79631;SDS011;69108;41.120;16.874;2023-07-16T05:21:16;13.60;;;5.75;;
79631;SDS011;69108;41.120;16.874;2023-07-16T05:26:10;11.63;;;6.10;;
79631;SDS011;69108;41.120;16.874;2023-07-16T05:28:38;20.13;;;7.00;;
79631;SDS011;69108;41.120;16.874;2023-07-16T05:31:07;13.63;;;6.43;;
79631;SDS011;69108;41.120;16.874;2023-07-16T05:33:35;19.02;;;7.20;;
79631;SDS011;69108;41.120;16.874;2023-07-16T05:36:03;14.75;;;6.35;;
79631;SDS011;69108;41.120;16.874;2023-07-16T05:38:30;14.85;;;6.82;;
79631;SDS011;69108;41.120;16.874;2023-07-16T05:40:59;14.32;;;6.72;;
79631;SDS011;69108;41.120;16.874;2023-07-16T05:43:27;15.18;;;6.60;;
79631;SDS011;69108;41.120;16.874;2023-07-16T05:45:54;28.90;;;9.35;;
79631;SDS011;69108;41.120;16.874;2023-07-16T05:48:23;21.30;;;7.28;;
79631;SDS011;69108;41.120;16.874;2023-07-16T05:50:50;12.95;;;6.80;;
79631;SDS011;69108;41.120;16.874;2023-07-16T05:53:17;15.40;;;7.50;;
79631;SDS011;69108;41.120;16.874;2023-07-16T05:55:44;18.58;;;7.80;;
79631;SDS011;69108;41.120;16.874;2023-07-16T05:58:14;19.50;;;7.32;;
79631;SDS011;69108;41.120;16.874;2023-07-16T06:00:45;17.85;;;7.95;;
79631;SDS011;69108;41.120;16.874;2023-07-16T06:03:12;17.83;;;7.90;;
79631;SDS011;69108;41.120;16.874;2023-07-16T06:05:45;14.27;;;7.50;;
79631;SDS011;69108;41.120;16.874;2023-07-16T06:08:12;16.58;;;8.00;;
79631;SDS011;69108;41.120;16.874;2023-07-16T06:10:39;17.13;;;8.10;;
79631;SDS011;69108;41.120;16.874;2023-07-16T06:13:06;15.07;;;7.82;;
79631;SDS011;69108;41.120;16.874;2023-07-16T06:18:03;15.02;;;7.38;;
79631;SDS011;69108;41.120;16.874;2023-07-16T06:20:30;13.82;;;7.22;;
79631;SDS011;69108;41.120;16.874;2023-07-16T06:23:00;16.55;;;8.15;;
79631;SDS011;69108;41.120;16.874;2023-07-16T06:25:33;15.57;;;7.72;;
79631;SDS011;69108;41.120;16.874;2023-07-16T06:28:01;17.63;;;9.00;;
79631;SDS011;69108;41.120;16.874;2023-07-16T06:30:28;19.63;;;9.00;;
79631;SDS011;69108;41.120;16.874;2023-07-16T06:32:56;17.67;;;8.18;;
79631;SDS011;69108;41.120;16.874;2023-07-16T06:35:23;16.77;;;9.00;;
79631;SDS011;69108;41.120;16.874;2023-07-16T06:37:52;17.70;;;7.95;;
79631;SDS011;69108;41.120;16.874;2023-07-16T06:40:28;16.35;;;8.48;;
79631;SDS011;69108;41.120;16.874;2023-07-16T06:42:55;16.20;;;8.00;;
79631;SDS011;69108;41.120;16.874;2023-07-16T06:45:22;14.77;;;7.82;;
79631;SDS011;69108;41.120;16.874;2023-07-16T06:47:50;15.15;;;9.77;;
79631;SDS011;69108;41.120;16.874;2023-07-16T06:50:17;18.83;;;10.75;;
79631;SDS011;69108;41.120;16.874;2023-07-16T06:52:47;17.00;;;10.45;;
79631;SDS011;69108;41.120;16.874;2023-07-16T06:55:14;17.75;;;10.32;;
79631;SDS011;69108;41.120;16.874;2023-07-16T06:57:43;19.58;;;9.60;;
79631;SDS011;69108;41.120;16.874;2023-07-16T07:00:10;14.38;;;8.98;;
79631;SDS011;69108;41.120;16.874;2023-07-16T07:02:38;15.20;;;9.63;;
79631;SDS011;69108;41.120;16.874;2023-07-16T07:05:05;16.70;;;8.25;;
79631;SDS011;69108;41.120;16.874;2023-07-16T07:07:35;15.93;;;8.50;;
79631;SDS011;69108;41.120;16.874;2023-07-16T07:10:02;15.68;;;8.23;;
79631;SDS011;69108;41.120;16.874;2023-07-16T07:12:29;16.98;;;8.98;;
79631;SDS011;69108;41.120;16.874;2023-07-16T07:15:05;15.82;;;9.70;;
79631;SDS011;69108;41.120;16.874;2023-07-16T07:17:33;17.38;;;10.43;;
79631;SDS011;69108;41.120;16.874;2023-07-16T07:22:27;14.68;;;9.40;;
79631;SDS011;69108;41.120;16.874;2023-07-16T07:24:55;21.35;;;10.40;;
79631;SDS011;69108;41.120;16.874;2023-07-16T07:27:22;18.65;;;9.50;;
79631;SDS011;69108;41.120;16.874;2023-07-16T07:29:52;16.10;;;7.45;;
79631;SDS011;69108;41.120;16.874;2023-07-16T07:32:22;19.95;;;9.82;;
79631;SDS011;69108;41.120;16.874;2023-07-16T07:34:49;16.35;;;8.18;;
79631;SDS011;69108;41.120;16.874;2023-07-16T07:37:16;14.63;;;8.73;;
79631;SDS011;69108;41.120;16.874;2023-07-16T07:42:12;16.08;;;7.85;;
79631;SDS011;69108;41.120;16.874;2023-07-16T07:47:08;16.88;;;7.78;;
79631;SDS011;69108;41.120;16.874;2023-07-16T07:49:39;12.65;;;7.75;;
79631;SDS011;69108;41.120;16.874;2023-07-16T07:52:06;14.20;;;7.30;;
79631;SDS011;69108;41.120;16.874;2023-07-16T07:54:35;16.23;;;8.43;;
79631;SDS011;69108;41.120;16.874;2023-07-16T07:57:03;15.70;;;7.07;;
79631;SDS011;69108;41.120;16.874;2023-07-16T07:59:32;13.95;;;8.40;;
79631;SDS011;69108;41.120;16.874;2023-07-16T08:01:59;14.75;;;7.63;;
79631;SDS011;69108;41.120;16.874;2023-07-16T08:04:27;13.48;;;7.85;;
79631;SDS011;69108;41.120;16.874;2023-07-16T08:06:55;12.73;;;7.50;;
79631;SDS011;69108;41.120;16.874;2023-07-16T08:09:22;16.15;;;7.30;;
79631;SDS011;69108;41.120;16.874;2023-07-16T08:11:50;15.35;;;7.50;;
79631;SDS011;69108;41.120;16.874;2023-07-16T08:14:20;13.88;;;8.20;;
79631;SDS011;69108;41.120;16.874;2023-07-16T08:16:48;14.60;;;6.75;;
79631;SDS011;69108;41.120;16.874;2023-07-16T08:19:15;15.93;;;6.88;;
79631;SDS011;69108;41.120;16.874;2023-07-16T08:21:43;17.02;;;6.97;;
79631;SDS011;69108;41.120;16.874;2023-07-16T08:24:14;13.13;;;5.53;;
79631;SDS011;69108;41.120;16.874;2023-07-16T08:26:41;11.95;;;5.85;;
79631;SDS011;69108;41.120;16.874;2023-07-16T08:29:12;13.10;;;6.05;;
79631;SDS011;69108;41.120;16.874;2023-07-16T08:31:40;13.50;;;5.90;;
79631;SDS011;69108;41.120;16.874;2023-07-16T08:34:07;13.10;;;6.38;;
79631;SDS011;69108;41.120;16.874;2023-07-16T08:36:34;12.48;;;6.07;;
79631;SDS011;69108;41.120;16.874;2023-07-16T08:39:03;11.00;;;5.75;;
79631;SDS011;69108;41.120;16.874;2023-07-16T08:41:32;9.75;;;5.30;;
79631;SDS011;69108;41.120;16.874;2023-07-16T08:43:59;12.07;;;5.97;;
79631;SDS011;69108;41.120;16.874;2023-07-16T08:46:28;15.52;;;5.75;;
79631;SDS011;69108;41.120;16.874;2023-07-16T08:48:58;11.15;;;5.18;;
79631;SDS011;69108;41.120;16.874;2023-07-16T08:51:26;13.32;;;5.80;;
79631;SDS011;69108;41.120;16.874;2023-07-16T08:53:57;12.25;;;5.65;;
79631;SDS011;69108;41.120;16.874;2023-07-16T08:56:25;13.48;;;5.63;;
79631;SDS011;69108;41.120;16.874;2023-07-16T08:58:54;13.77;;;5.82;;
79631;SDS011;69108;41.120;16.874;2023-07-16T09:01:22;13.43;;;5.68;;
79631;SDS011;69108;41.120;16.874;2023-07-16T09:03:50;15.32;;;6.28;;
79631;SDS011;69108;41.120;16.874;2023-07-16T09:06:17;13.70;;;6.00;;
79631;SDS011;69108;41.120;16.874;2023-07-16T09:08:50;12.98;;;5.70;;
79631;SDS011;69108;41.120;16.874;2023-07-16T09:11:17;13.45;;;6.15;;
79631;SDS011;69108;41.120;16.874;2023-07-16T09:13:47;11.20;;;5.50;;
79631;SDS011;69108;41.120;16.874;2023-07-16T09:16:19;12.00;;;5.43;;
79631;SDS011;69108;41.120;16.874;2023-07-16T09:18:47;10.30;;;5.32;;
79631;SDS011;69108;41.120;16.874;2023-07-16T09:21:14;12.55;;;5.68;;
79631;SDS011;69108;41.120;16.874;2023-07-16T09:23:41;12.57;;;5.50;;
79631;SDS011;69108;41.120;16.874;2023-07-16T09:26:10;12.82;;;5.82;;
79631;SDS011;69108;41.120;16.874;2023-07-16T09:28:38;12.23;;;5.80;;
79631;SDS011;69108;41.120;16.874;2023-07-16T09:31:07;12.38;;;5.78;;
79631;SDS011;69108;41.120;16.874;2023-07-16T09:33:39;12.63;;;5.80;;
79631;SDS011;69108;41.120;16.874;2023-07-16T09:36:06;10.13;;;5.43;;
79631;SDS011;69108;41.120;16.874;2023-07-16T09:38:36;9.63;;;4.97;;
79631;SDS011;69108;41.120;16.874;2023-07-16T09:41:05;11.07;;;5.20;;
79631;SDS011;69108;41.120;16.874;2023-07-16T09:43:34;14.88;;;5.95;;
79631;SDS011;69108;41.120;16.874;2023-07-16T09:46:02;12.90;;;5.68;;
79631;SDS011;69108;41.120;16.874;2023-07-16T09:48:29;12.27;;;6.10;;
79631;SDS011;69108;41.120;16.874;2023-07-16T09:50:58;17.75;;;5.75;;
79631;SDS011;69108;41.120;16.874;2023-07-16T09:53:25;11.45;;;6.43;;
79631;SDS011;69108;41.120;16.874;2023-07-16T09:55:54;12.55;;;6.20;;
79631;SDS011;69108;41.120;16.874;2023-07-16T09:58:27;10.48;;;6.00;;
79631;SDS011;69108;41.120;16.874;2023-07-16T10:00:55;13.25;;;5.80;;
79631;SDS011;69108;41.120;16.874;2023-07-16T10:03:22;11.93;;;5.53;;
79631;SDS011;69108;41.120;16.874;2023-07-16T10:05:50;15.35;;;6.40;;
79631;SDS011;69108;41.120;16.874;2023-07-16T10:08:19;11.90;;;5.53;;
79631;SDS011;69108;41.120;16.874;2023-07-16T10:10:48;9.70;;;5.20;;
79631;SDS011;69108;41.120;16.874;2023-07-16T10:15:57;10.02;;;4.80;;
79631;SDS011;69108;41.120;16.874;2023-07-16T10:18:26;10.25;;;5.38;;
79631;SDS011;69108;41.120;16.874;2023-07-16T10:21:12;10.27;;;5.03;;
79631;SDS011;69108;41.120;16.874;2023-07-16T10:23:41;10.68;;;5.15;;
79631;SDS011;69108;41.120;16.874;2023-07-16T10:26:14;14.57;;;6.20;;
79631;SDS011;69108;41.120;16.874;2023-07-16T10:28:42;10.07;;;5.45;;
79631;SDS011;69108;41.120;16.874;2023-07-16T10:31:16;11.20;;;5.70;;
79631;SDS011;69108;41.120;16.874;2023-07-16T10:33:44;13.90;;;6.20;;
79631;SDS011;69108;41.120;16.874;2023-07-16T10:36:17;11.18;;;5.93;;
79631;SDS011;69108;41.120;16.874;2023-07-16T10:38:48;13.32;;;5.88;;
79631;SDS011;69108;41.120;16.874;2023-07-16T10:41:18;12.48;;;5.68;;
79631;SDS011;69108;41.120;16.874;2023-07-16T10:43:45;12.18;;;6.18;;
79631;SDS011;69108;41.120;16.874;2023-07-16T10:46:12;9.65;;;5.45;;
79631;SDS011;69108;41.120;16.874;2023-07-16T10:48:45;11.85;;;6.70;;
79631;SDS011;69108;41.120;16.874;2023-07-16T10:51:14;14.43;;;6.43;;
79631;SDS011;69108;41.120;16.874;2023-07-16T10:53:42;17.55;;;6.85;;
79631;SDS011;69108;41.120;16.874;2023-07-16T10:56:11;14.68;;;6.95;;
79631;SDS011;69108;41.120;16.874;2023-07-16T10:58:38;15.82;;;7.07;;
79631;SDS011;69108;41.120;16.874;2023-07-16T11:01:08;13.82;;;6.60;;
79631;SDS011;69108;41.120;16.874;2023-07-16T11:03:35;12.13;;;6.63;;
79631;SDS011;69108;41.120;16.874;2023-07-16T11:06:14;15.32;;;7.22;;
79631;SDS011;69108;41.120;16.874;2023-07-16T11:08:43;13.07;;;7.18;;
79631;SDS011;69108;41.120;16.874;2023-07-16T11:11:12;13.15;;;7.15;;
79631;SDS011;69108;41.120;16.874;2023-07-16T11:13:38;13.45;;;7.93;;
79631;SDS011;69108;41.120;16.874;2023-07-16T11:18:35;11.68;;;7.43;;
79631;SDS011;69108;41.120;16.874;2023-07-16T11:23:29;11.13;;;6.75;;
79631;SDS011;69108;41.120;16.874;2023-07-16T11:25:56;13.52;;;7.32;;
79631;SDS011;69108;41.120;16.874;2023-07-16T11:28:24;14.10;;;6.78;;
79631;SDS011;69108;41.120;16.874;2023-07-16T11:31:09;11.50;;;6.88;;
79631;SDS011;69108;41.120;16.874;2023-07-16T11:33:38;11.23;;;6.55;;
79631;SDS011;69108;41.120;16.874;2023-07-16T11:36:08;11.32;;;6.20;;
79631;SDS011;69108;41.120;16.874;2023-07-16T11:38:36;10.43;;;5.93;;
79631;SDS011;69108;41.120;16.874;2023-07-16T11:41:03;9.65;;;6.28;;
79631;SDS011;69108;41.120;16.874;2023-07-16T11:43:34;10.27;;;6.95;;
79631;SDS011;69108;41.120;16.874;2023-07-16T11:46:03;11.77;;;6.85;;
79631;SDS011;69108;41.120;16.874;2023-07-16T11:48:31;13.48;;;6.75;;
79631;SDS011;69108;41.120;16.874;2023-07-16T11:53:30;11.13;;;6.97;;
79631;SDS011;69108;41.120;16.874;2023-07-16T11:55:58;15.48;;;6.38;;
79631;SDS011;69108;41.120;16.874;2023-07-16T11:58:25;12.38;;;6.22;;
79631;SDS011;69108;41.120;16.874;2023-07-16T12:03:20;13.18;;;6.20;;
79631;SDS011;69108;41.120;16.874;2023-07-16T12:08:22;12.95;;;6.07;;
79631;SDS011;69108;41.120;16.874;2023-07-16T12:13:16;10.25;;;5.45;;
79631;SDS011;69108;41.120;16.874;2023-07-16T12:15:44;10.23;;;5.38;;
79631;SDS011;69108;41.120;16.874;2023-07-16T12:18:13;12.10;;;5.53;;
79631;SDS011;69108;41.120;16.874;2023-07-16T12:20:40;10.20;;;5.60;;
79631;SDS011;69108;41.120;16.874;2023-07-16T12:23:09;9.48;;;4.80;;
79631;SDS011;69108;41.120;16.874;2023-07-16T12:25:36;12.20;;;5.18;;
79631;SDS011;69108;41.120;16.874;2023-07-16T12:28:05;12.00;;;5.20;;
79631;SDS011;69108;41.120;16.874;2023-07-16T12:30:32;11.02;;;5.28;;
79631;SDS011;69108;41.120;16.874;2023-07-16T12:32:58;8.82;;;4.35;;
79631;SDS011;69108;41.120;16.874;2023-07-16T12:35:28;10.98;;;4.65;;
79631;SDS011;69108;41.120;16.874;2023-07-16T12:37:55;9.20;;;4.45;;
79631;SDS011;69108;41.120;16.874;2023-07-16T12:40:23;11.05;;;5.38;;
79631;SDS011;69108;41.120;16.874;2023-07-16T12:42:52;9.60;;;4.68;;
79631;SDS011;69108;41.120;16.874;2023-07-16T12:45:20;9.05;;;4.70;;
79631;SDS011;69108;41.120;16.874;2023-07-16T12:47:49;9.68;;;4.63;;
79631;SDS011;69108;41.120;16.874;2023-07-16T12:50:16;9.13;;;4.68;;
79631;SDS011;69108;41.120;16.874;2023-07-16T12:52:47;7.75;;;4.28;;
79631;SDS011;69108;41.120;16.874;2023-07-16T12:55:16;10.68;;;5.47;;
79631;SDS011;69108;41.120;16.874;2023-07-16T12:57:44;11.15;;;5.05;;
79631;SDS011;69108;41.120;16.874;2023-07-16T13:00:13;9.35;;;5.15;;
79631;SDS011;69108;41.120;16.874;2023-07-16T13:02:41;10.38;;;5.30;;
79631;SDS011;69108;41.120;16.874;2023-07-16T13:05:08;12.57;;;5.53;;
79631;SDS011;69108;41.120;16.874;2023-07-16T13:07:37;10.15;;;5.30;;
79631;SDS011;69108;41.120;16.874;2023-07-16T13:10:07;8.68;;;5.20;;
79631;SDS011;69108;41.120;16.874;2023-07-16T13:12:35;10.00;;;5.13;;
79631;SDS011;69108;41.120;16.874;2023-07-16T13:15:05;11.32;;;4.72;;
79631;SDS011;69108;41.120;16.874;2023-07-16T13:17:37;8.90;;;5.13;;
79631;SDS011;69108;41.120;16.874;2023-07-16T13:20:05;9.95;;;4.78;;
79631;SDS011;69108;41.120;16.874;2023-07-16T13:22:35;10.27;;;5.32;;
79631;SDS011;69108;41.120;16.874;2023-07-16T13:25:03;11.25;;;5.28;;
79631;SDS011;69108;41.120;16.874;2023-07-16T13:27:33;9.07;;;4.85;;
79631;SDS011;69108;41.120;16.874;2023-07-16T13:30:00;9.90;;;5.00;;
79631;SDS011;69108;41.120;16.874;2023-07-16T13:32:28;10.75;;;5.13;;
79631;SDS011;69108;41.120;16.874;2023-07-16T13:34:55;10.02;;;4.32;;
79631;SDS011;69108;41.120;16.874;2023-07-16T13:37:24;8.25;;;4.20;;
79631;SDS011;69108;41.120;16.874;2023-07-16T13:39:51;9.93;;;4.47;;
79631;SDS011;69108;41.120;16.874;2023-07-16T13:42:19;8.25;;;4.32;;
79631;SDS011;69108;41.120;16.874;2023-07-16T13:44:47;10.10;;;4.10;;
79631;SDS011;69108;41.120;16.874;2023-07-16T13:47:15;9.75;;;4.25;;
79631;SDS011;69108;41.120;16.874;2023-07-16T13:49:41;9.98;;;4.18;;
79631;SDS011;69108;41.120;16.874;2023-07-16T13:52:08;8.80;;;4.25;;
79631;SDS011;69108;41.120;16.874;2023-07-16T13:54:39;11.13;;;4.70;;
79631;SDS011;69108;41.120;16.874;2023-07-16T13:57:06;6.85;;;3.65;;
79631;SDS011;69108;41.120;16.874;2023-07-16T13:59:34;8.95;;;4.13;;
79631;SDS011;69108;41.120;16.874;2023-07-16T14:02:03;7.53;;;3.90;;
79631;SDS011;69108;41.120;16.874;2023-07-16T14:04:30;10.52;;;4.40;;
79631;SDS011;69108;41.120;16.874;2023-07-16T14:06:58;8.43;;;4.68;;
79631;SDS011;69108;41.120;16.874;2023-07-16T14:09:27;8.90;;;4.40;;
79631;SDS011;69108;41.120;16.874;2023-07-16T14:14:21;10.18;;;4.80;;
79631;SDS011;69108;41.120;16.874;2023-07-16T14:16:50;8.38;;;3.67;;
79631;SDS011;69108;41.120;16.874;2023-07-16T14:19:17;10.13;;;3.95;;
79631;SDS011;69108;41.120;16.874;2023-07-16T14:21:46;9.13;;;3.95;;
79631;SDS011;69108;41.120;16.874;2023-07-16T14:24:14;7.22;;;3.95;;
79631;SDS011;69108;41.120;16.874;2023-07-16T14:26:42;10.75;;;4.47;;
79631;SDS011;69108;41.120;16.874;2023-07-16T14:29:11;9.27;;;4.00;;
79631;SDS011;69108;41.120;16.874;2023-07-16T14:31:39;6.95;;;4.15;;
79631;SDS011;69108;41.120;16.874;2023-07-16T14:34:07;9.35;;;4.47;;
79631;SDS011;69108;41.120;16.874;2023-07-16T14:36:34;7.38;;;4.28;;
79631;SDS011;69108;41.120;16.874;2023-07-16T14:39:03;8.07;;;3.92;;
79631;SDS011;69108;41.120;16.874;2023-07-16T14:43:57;10.25;;;4.70;;
79631;SDS011;69108;41.120;16.874;2023-07-16T14:46:27;8.27;;;3.85;;
79631;SDS011;69108;41.120;16.874;2023-07-16T14:51:26;7.88;;;3.85;;
79631;SDS011;69108;41.120;16.874;2023-07-16T14:53:55;9.85;;;4.25;;
79631;SDS011;69108;41.120;16.874;2023-07-16T14:58:51;8.55;;;4.28;;
79631;SDS011;69108;41.120;16.874;2023-07-16T15:01:21;8.98;;;4.30;;
79631;SDS011;69108;41.120;16.874;2023-07-16T15:03:48;10.73;;;4.35;;
79631;SDS011;69108;41.120;16.874;2023-07-16T15:06:15;11.30;;;4.35;;
79631;SDS011;69108;41.120;16.874;2023-07-16T15:08:43;8.05;;;4.30;;
79631;SDS011;69108;41.120;16.874;2023-07-16T15:11:10;9.90;;;4.55;;
79631;SDS011;69108;41.120;16.874;2023-07-16T15:13:37;9.52;;;4.63;;
79631;SDS011;69108;41.120;16.874;2023-07-16T15:16:04;10.80;;;4.97;;
79631;SDS011;69108;41.120;16.874;2023-07-16T15:18:33;11.00;;;4.35;;
79631;SDS011;69108;41.120;16.874;2023-07-16T15:21:00;11.25;;;4.63;;